Terminal Aerodrome Forecast
Issued by NWS Twin Cities, MN

Home | Current Version | Previous Version | Text Only | Print | Product List | Glossary Off
Versions: 1 2 3 4 5 6 7 8 9 10 11 12 13 14 15 16 17

841
FTUS43 KMPX 221724
TAFSTC
TAF
KSTC 221724Z 2218/2318 16012G19KT P6SM SCT130
     FM222300 15011KT P6SM OVC080
     FM231300 16011G20KT P6SM OVC030=

USA.gov is the U.S. government's official web portal to all federal, state and local government web resources and services.